Time;durP1;ratioP1;P1;durP2;ratioP2;P2;SDS_P1;SDS_P2;PMS_P1;PMS_P2;Temp;Humidity;BMP_temperature;BMP_pressure;BME280_temperature;BME280_humidity;BME280_pressure;Samples;Min_cycle;Max_cycle;Signal;HPM_P1;HPM_P2
2023/02/03 00:00:27;;;;;;;13.55;5.70;;;;;;;;;;5020234;28;20366;-65
2023/02/03 00:02:54;;;;;;;18.88;5.80;;;;;;;;;;5023839;28;20661;-64
2023/02/03 00:05:22;;;;;;;21.17;6.10;;;;;;;;;;5021612;28;20051;-66
2023/02/03 00:07:48;;;;;;;12.90;5.93;;;;;;;;;;5023047;28;20084;-65
2023/02/03 00:10:20;;;;;;;15.45;5.85;;;;;;;;;;5024983;28;20051;-66
2023/02/03 00:12:48;;;;;;;16.70;5.93;;;;;;;;;;5019021;28;20489;-66
2023/02/03 00:15:14;;;;;;;19.63;6.20;;;;;;;;;;5022833;28;20156;-66
2023/02/03 00:17:41;;;;;;;19.98;6.10;;;;;;;;;;5020551;28;20043;-67
2023/02/03 00:20:08;;;;;;;15.35;6.07;;;;;;;;;;5023986;28;20047;-65
2023/02/03 00:22:35;;;;;;;17.52;6.28;;;;;;;;;;5022059;28;20033;-66
2023/02/03 00:25:01;;;;;;;12.45;4.68;;;;;;;;;;5021662;28;20233;-66
2023/02/03 00:27:28;;;;;;;20.83;5.30;;;;;;;;;;5022044;28;20041;-66
2023/02/03 00:29:55;;;;;;;12.65;4.13;;;;;;;;;;5023280;28;20568;-66
2023/02/03 00:32:21;;;;;;;13.45;4.55;;;;;;;;;;5021111;28;20040;-66
2023/02/03 00:34:48;;;;;;;13.48;3.95;;;;;;;;;;5022749;28;20569;-66
2023/02/03 00:37:15;;;;;;;15.57;4.25;;;;;;;;;;5023635;28;20051;-66
2023/02/03 00:39:41;;;;;;;13.57;5.63;;;;;;;;;;5021341;28;20057;-66
2023/02/03 00:42:08;;;;;;;15.73;8.13;;;;;;;;;;5013127;28;20581;-66
2023/02/03 00:44:34;;;;;;;16.23;7.32;;;;;;;;;;5023092;28;20133;-66
2023/02/03 00:47:01;;;;;;;15.45;5.40;;;;;;;;;;5025567;28;20039;-65
2023/02/03 00:49:28;;;;;;;13.95;4.75;;;;;;;;;;5025261;28;20045;-65
2023/02/03 00:51:54;;;;;;;10.52;4.70;;;;;;;;;;5024769;28;20121;-65
2023/02/03 00:54:21;;;;;;;18.85;4.40;;;;;;;;;;5020041;28;20036;-66
2023/02/03 00:56:48;;;;;;;11.13;4.55;;;;;;;;;;5023282;28;20045;-65
2023/02/03 00:59:15;;;;;;;19.38;4.43;;;;;;;;;;5029050;28;20123;-66
2023/02/03 01:01:42;;;;;;;14.02;4.72;;;;;;;;;;5024226;28;20041;-65
2023/02/03 01:04:10;;;;;;;9.48;4.13;;;;;;;;;;5028735;28;20096;-66
2023/02/03 01:06:36;;;;;;;12.82;4.60;;;;;;;;;;5025782;28;20057;-65
2023/02/03 01:09:03;;;;;;;10.77;4.28;;;;;;;;;;5012393;28;20164;-66
2023/02/03 01:11:30;;;;;;;9.32;4.43;;;;;;;;;;5032178;28;20033;-65
2023/02/03 01:14:00;;;;;;;12.57;4.72;;;;;;;;;;5026259;28;20042;-67
2023/02/03 01:16:29;;;;;;;14.85;3.95;;;;;;;;;;5013443;28;20045;-66
2023/02/03 01:18:56;;;;;;;10.57;4.40;;;;;;;;;;5022845;28;20047;-66
2023/02/03 01:21:24;;;;;;;9.35;4.53;;;;;;;;;;5024665;28;20060;-67
2023/02/03 01:23:51;;;;;;;12.23;3.72;;;;;;;;;;5023560;28;20128;-67
2023/02/03 01:26:19;;;;;;;9.85;4.07;;;;;;;;;;5024557;28;20041;-65
2023/02/03 01:28:56;;;;;;;7.47;3.47;;;;;;;;;;5017133;28;20052;-65
2023/02/03 01:31:24;;;;;;;12.98;4.07;;;;;;;;;;5025162;28;20037;-64
2023/02/03 01:33:53;;;;;;;10.10;4.38;;;;;;;;;;5026126;28;20090;-65
2023/02/03 01:36:20;;;;;;;11.70;4.63;;;;;;;;;;5023515;28;20045;-66
2023/02/03 01:38:47;;;;;;;10.55;4.25;;;;;;;;;;5022327;28;20407;-65
2023/02/03 01:41:15;;;;;;;10.25;4.40;;;;;;;;;;5022532;28;20053;-66
2023/02/03 01:43:43;;;;;;;13.18;4.00;;;;;;;;;;5024216;28;20038;-65
2023/02/03 01:46:24;;;;;;;12.73;5.05;;;;;;;;;;5023409;28;20079;-65
2023/02/03 01:48:52;;;;;;;9.68;4.00;;;;;;;;;;5019883;28;20063;-65
2023/02/03 01:51:18;;;;;;;16.17;5.28;;;;;;;;;;5013525;28;20412;-65
2023/02/03 01:53:45;;;;;;;12.07;4.53;;;;;;;;;;5000822;28;20165;-65
2023/02/03 01:56:12;;;;;;;8.63;4.68;;;;;;;;;;5017564;28;20045;-66
2023/02/03 01:58:40;;;;;;;9.13;4.43;;;;;;;;;;5002593;28;20504;-67
2023/02/03 02:01:07;;;;;;;11.80;4.07;;;;;;;;;;5006517;28;20837;-66
2023/02/03 02:04:00;;;;;;;13.40;4.85;;;;;;;;;;5002343;28;20475;-69
2023/02/03 02:06:27;;;;;;;12.25;5.20;;;;;;;;;;4998776;28;20069;-66
2023/02/03 02:08:54;;;;;;;21.13;5.00;;;;;;;;;;4985310;28;20121;-66
2023/02/03 02:11:21;;;;;;;8.07;3.97;;;;;;;;;;5003753;28;20037;-66
2023/02/03 02:13:49;;;;;;;12.52;4.60;;;;;;;;;;5006215;28;20033;-65
2023/02/03 02:16:38;;;;;;;16.95;5.18;;;;;;;;;;5005407;28;20038;-65
2023/02/03 02:19:14;;;;;;;10.77;5.75;;;;;;;;;;5027505;28;20037;-65
2023/02/03 02:21:52;;;;;;;10.18;4.68;;;;;;;;;;5022947;28;20171;-65
2023/02/03 02:24:34;;;;;;;22.88;4.68;;;;;;;;;;5027160;28;20060;-67
2023/02/03 02:27:20;;;;;;;15.88;4.53;;;;;;;;;;5027655;28;21462;-67
2023/02/03 02:30:05;;;;;;;13.90;4.57;;;;;;;;;;5007969;28;20056;-66
2023/02/03 02:33:01;;;;;;;10.10;4.47;;;;;;;;;;5043667;28;20041;-65
2023/02/03 02:35:46;;;;;;;15.15;5.18;;;;;;;;;;5043790;28;20032;-66
2023/02/03 02:38:16;;;;;;;12.90;7.68;;;;;;;;;;5050339;28;20044;-67
2023/02/03 02:40:48;;;;;;;12.70;6.03;;;;;;;;;;5065032;28;20049;-67
2023/02/03 02:43:15;;;;;;;9.38;3.63;;;;;;;;;;5053670;28;20037;-64
2023/02/03 02:45:48;;;;;;;7.82;2.92;;;;;;;;;;5046843;28;20045;-65
2023/02/03 02:48:17;;;;;;;8.10;4.05;;;;;;;;;;5048640;28;20064;-67
2023/02/03 02:50:46;;;;;;;8.55;3.08;;;;;;;;;;5040301;28;20090;-67
2023/02/03 02:53:15;;;;;;;7.10;2.92;;;;;;;;;;5046501;28;20041;-68
2023/02/03 02:55:42;;;;;;;7.22;3.38;;;;;;;;;;5039922;28;20052;-66
2023/02/03 02:58:11;;;;;;;9.73;3.03;;;;;;;;;;5038302;28;20116;-66
2023/02/03 03:00:40;;;;;;;7.53;2.72;;;;;;;;;;5032007;28;20140;-66
2023/02/03 03:03:33;;;;;;;10.82;4.95;;;;;;;;;;5037432;28;20096;-66
2023/02/03 03:06:02;;;;;;;8.75;3.45;;;;;;;;;;5012759;28;20037;-67
2023/02/03 03:08:32;;;;;;;9.55;3.20;;;;;;;;;;5024363;28;20046;-66
2023/02/03 03:11:19;;;;;;;10.68;2.88;;;;;;;;;;4998090;28;20086;-66
2023/02/03 03:13:49;;;;;;;5.80;2.80;;;;;;;;;;4995913;28;20061;-66
2023/02/03 03:16:17;;;;;;;8.52;2.55;;;;;;;;;;4992102;28;20066;-67
2023/02/03 03:18:46;;;;;;;7.88;2.60;;;;;;;;;;4992852;28;20071;-67
2023/02/03 03:21:16;;;;;;;5.10;2.20;;;;;;;;;;4989405;28;20065;-67
2023/02/03 03:23:44;;;;;;;5.78;2.38;;;;;;;;;;4992892;28;20058;-68
2023/02/03 03:26:13;;;;;;;5.70;2.38;;;;;;;;;;4991561;28;20543;-66
2023/02/03 03:28:43;;;;;;;6.72;2.10;;;;;;;;;;4991871;28;20738;-67
2023/02/03 03:31:10;;;;;;;5.40;2.05;;;;;;;;;;4996868;28;20084;-67
2023/02/03 03:33:37;;;;;;;4.40;1.33;;;;;;;;;;4997443;28;20085;-67
2023/02/03 03:36:23;;;;;;;4.00;1.55;;;;;;;;;;4999024;28;20045;-67
2023/02/03 03:38:56;;;;;;;4.68;1.58;;;;;;;;;;4997227;28;20046;-67
2023/02/03 03:41:28;;;;;;;4.38;1.65;;;;;;;;;;4996686;28;20056;-66
2023/02/03 03:43:57;;;;;;;3.57;1.50;;;;;;;;;;5005156;28;20081;-66
2023/02/03 03:46:27;;;;;;;5.22;1.70;;;;;;;;;;5002240;28;20738;-66
2023/02/03 03:48:59;;;;;;;3.72;1.30;;;;;;;;;;5000083;28;20079;-66
2023/02/03 03:51:32;;;;;;;2.95;0.90;;;;;;;;;;5000513;28;20061;-67
2023/02/03 03:54:01;;;;;;;5.20;1.50;;;;;;;;;;5002538;28;20053;-66
2023/02/03 03:56:31;;;;;;;6.15;2.63;;;;;;;;;;5003371;28;20596;-67
2023/02/03 03:58:59;;;;;;;14.45;6.40;;;;;;;;;;5003083;28;20049;-66
2023/02/03 04:01:26;;;;;;;5.55;2.30;;;;;;;;;;5002652;28;20120;-66
2023/02/03 04:03:56;;;;;;;5.65;2.40;;;;;;;;;;5003187;28;20100;-66
2023/02/03 04:06:23;;;;;;;7.65;2.00;;;;;;;;;;5002676;28;20049;-66
2023/02/03 04:08:50;;;;;;;6.10;1.50;;;;;;;;;;5003217;28;20038;-66
2023/02/03 04:12:00;;;;;;;5.70;1.40;;;;;;;;;;5004193;28;20046;-66
2023/02/03 04:14:03;;;;;;;3.30;0.90;;;;;;;;;;5006502;28;20368;-66
2023/02/03 04:16:30;;;;;;;1.83;0.60;;;;;;;;;;5005593;28;20041;-66
2023/02/03 04:18:56;;;;;;;3.72;0.90;;;;;;;;;;5004407;28;20042;-66
2023/02/03 04:21:23;;;;;;;3.38;1.00;;;;;;;;;;5003234;28;20521;-66
2023/02/03 04:23:51;;;;;;;5.05;1.20;;;;;;;;;;5004773;28;20050;-66
2023/02/03 04:26:17;;;;;;;3.58;1.30;;;;;;;;;;5001844;28;20042;-66
2023/02/03 04:28:44;;;;;;;4.93;1.23;;;;;;;;;;5003193;28;20066;-66
2023/02/03 04:31:11;;;;;;;3.00;1.02;;;;;;;;;;5003097;28;20072;-66
2023/02/03 04:33:37;;;;;;;3.40;0.93;;;;;;;;;;5003755;28;25214;-67
2023/02/03 04:36:04;;;;;;;3.10;1.10;;;;;;;;;;5003430;28;20050;-67
2023/02/03 04:38:32;;;;;;;4.15;0.98;;;;;;;;;;5003485;28;20046;-67
2023/02/03 04:40:58;;;;;;;4.72;1.00;;;;;;;;;;5002704;28;20874;-67
2023/02/03 04:43:25;;;;;;;4.93;1.55;;;;;;;;;;5002995;28;20045;-67
2023/02/03 04:45:52;;;;;;;3.28;1.15;;;;;;;;;;5002868;28;20398;-67
2023/02/03 04:48:18;;;;;;;3.35;1.00;;;;;;;;;;5002371;28;20038;-67
2023/02/03 04:50:45;;;;;;;4.03;1.48;;;;;;;;;;5001043;28;20045;-67
2023/02/03 04:53:11;;;;;;;5.60;1.40;;;;;;;;;;5001937;28;20065;-66
2023/02/03 04:55:38;;;;;;;4.65;1.30;;;;;;;;;;5002161;28;20400;-67
2023/02/03 04:58:05;;;;;;;5.60;1.80;;;;;;;;;;5002991;28;20084;-67
2023/02/03 05:00:31;;;;;;;6.18;1.67;;;;;;;;;;5001417;28;20062;-66
2023/02/03 05:02:58;;;;;;;6.03;1.80;;;;;;;;;;4995510;28;20042;-67
2023/02/03 05:05:24;;;;;;;4.43;1.52;;;;;;;;;;5001750;28;20093;-67
2023/02/03 05:07:51;;;;;;;3.80;1.30;;;;;;;;;;5002758;28;20045;-67
2023/02/03 05:10:18;;;;;;;4.18;1.45;;;;;;;;;;4996798;28;20042;-67
2023/02/03 05:12:45;;;;;;;4.05;1.33;;;;;;;;;;5011459;28;20048;-67
2023/02/03 05:15:11;;;;;;;5.57;1.50;;;;;;;;;;5003293;28;20108;-67
2023/02/03 05:17:39;;;;;;;3.47;1.33;;;;;;;;;;5002672;28;20502;-66
2023/02/03 05:20:06;;;;;;;4.80;1.52;;;;;;;;;;5002444;28;20079;-66
2023/02/03 05:22:34;;;;;;;4.65;1.48;;;;;;;;;;5000638;28;20124;-67
2023/02/03 05:25:01;;;;;;;6.07;1.20;;;;;;;;;;5009252;28;20046;-66
2023/02/03 05:27:28;;;;;;;3.38;1.33;;;;;;;;;;5000966;28;20130;-67
2023/02/03 05:29:54;;;;;;;3.90;1.45;;;;;;;;;;5001568;28;20045;-66
2023/02/03 05:32:21;;;;;;;3.28;1.10;;;;;;;;;;5004536;28;20119;-67
2023/02/03 05:34:48;;;;;;;6.50;1.50;;;;;;;;;;5002779;28;20046;-67
2023/02/03 05:37:14;;;;;;;7.50;1.63;;;;;;;;;;5004292;28;20112;-67
2023/02/03 05:39:41;;;;;;;4.63;1.75;;;;;;;;;;5001756;28;20049;-66
2023/02/03 05:42:07;;;;;;;5.40;1.55;;;;;;;;;;5000516;28;20046;-65
2023/02/03 05:44:34;;;;;;;5.00;1.65;;;;;;;;;;4999904;28;20101;-65
2023/02/03 05:47:01;;;;;;;5.47;1.80;;;;;;;;;;5002622;28;20042;-65
2023/02/03 05:49:27;;;;;;;7.68;1.90;;;;;;;;;;5000707;28;20831;-65
2023/02/03 05:51:55;;;;;;;3.90;1.73;;;;;;;;;;4999408;28;20530;-65
2023/02/03 05:54:21;;;;;;;6.07;1.80;;;;;;;;;;4999756;28;20664;-65
2023/02/03 05:56:48;;;;;;;4.22;1.50;;;;;;;;;;5000517;28;20442;-65
2023/02/03 05:59:15;;;;;;;8.80;1.50;;;;;;;;;;5001685;28;20041;-65
2023/02/03 06:01:41;;;;;;;3.97;1.52;;;;;;;;;;4999917;28;20041;-65
2023/02/03 06:04:08;;;;;;;3.50;1.50;;;;;;;;;;5001518;28;20128;-65
2023/02/03 06:06:35;;;;;;;3.03;1.23;;;;;;;;;;5000785;28;20117;-65
2023/02/03 06:09:06;;;;;;;10.43;1.50;;;;;;;;;;5002462;28;20100;-65
2023/02/03 06:11:34;;;;;;;3.70;1.20;;;;;;;;;;4999343;28;20038;-66
2023/02/03 06:14:01;;;;;;;4.78;1.25;;;;;;;;;;5002680;28;20045;-66
2023/02/03 06:16:29;;;;;;;3.58;1.15;;;;;;;;;;5001309;28;20033;-66
2023/02/03 06:19:00;;;;;;;3.40;1.00;;;;;;;;;;5001722;28;20120;-65
2023/02/03 06:21:27;;;;;;;23.25;14.65;;;;;;;;;;5000537;28;20490;-66
2023/02/03 06:23:55;;;;;;;6.03;3.10;;;;;;;;;;5004189;28;20509;-66
2023/02/03 06:26:22;;;;;;;3.20;1.08;;;;;;;;;;5003383;28;20648;-66
2023/02/03 06:28:48;;;;;;;3.05;1.23;;;;;;;;;;5005966;28;20045;-67
2023/02/03 06:31:15;;;;;;;4.25;1.48;;;;;;;;;;5009017;28;20037;-66
2023/02/03 06:33:42;;;;;;;3.30;1.23;;;;;;;;;;5018274;28;20107;-66
2023/02/03 06:36:08;;;;;;;3.08;1.05;;;;;;;;;;5016071;28;20171;-66
2023/02/03 06:38:35;;;;;;;4.97;1.00;;;;;;;;;;5003711;28;20577;-66
2023/02/03 06:41:02;;;;;;;4.00;0.98;;;;;;;;;;5003269;28;20188;-66
2023/02/03 06:43:28;;;;;;;3.88;1.10;;;;;;;;;;5002929;28;20874;-66
2023/02/03 06:45:55;;;;;;;3.55;0.98;;;;;;;;;;5010395;28;20056;-66
2023/02/03 06:48:22;;;;;;;2.85;0.88;;;;;;;;;;5014859;28;20037;-66
2023/02/03 06:50:49;;;;;;;5.55;1.23;;;;;;;;;;5011677;28;20044;-66
2023/02/03 06:53:15;;;;;;;5.30;0.95;;;;;;;;;;5009988;28;20396;-66
2023/02/03 06:55:42;;;;;;;3.95;1.30;;;;;;;;;;5004719;28;20052;-67
2023/02/03 06:58:29;;;;;;;3.13;0.98;;;;;;;;;;5000052;28;20128;-66
2023/02/03 07:00:56;;;;;;;3.33;0.95;;;;;;;;;;4999400;28;20286;-66
2023/02/03 07:03:22;;;;;;;4.78;1.38;;;;;;;;;;4999538;28;20045;-67
2023/02/03 07:05:49;;;;;;;3.83;1.23;;;;;;;;;;5004469;28;20111;-66
2023/02/03 07:08:16;;;;;;;4.60;1.00;;;;;;;;;;5006964;28;20038;-66
2023/02/03 07:10:42;;;;;;;4.68;1.17;;;;;;;;;;5005257;28;20061;-67
2023/02/03 07:13:09;;;;;;;3.10;1.02;;;;;;;;;;5001960;28;20295;-66
2023/02/03 07:15:35;;;;;;;5.03;1.40;;;;;;;;;;4999652;28;20395;-67
2023/02/03 07:18:02;;;;;;;4.75;1.20;;;;;;;;;;5000870;28;20921;-66
2023/02/03 07:20:29;;;;;;;4.18;1.40;;;;;;;;;;5000435;28;20049;-66
2023/02/03 07:22:56;;;;;;;4.70;1.27;;;;;;;;;;5003964;28;20530;-66
2023/02/03 07:25:23;;;;;;;5.63;1.50;;;;;;;;;;5008000;28;20042;-66
2023/02/03 07:27:50;;;;;;;3.45;1.33;;;;;;;;;;5008323;28;20045;-66
2023/02/03 07:30:17;;;;;;;4.75;1.38;;;;;;;;;;5007121;28;20487;-67
2023/02/03 07:32:47;;;;;;;3.53;1.42;;;;;;;;;;5002364;28;20045;-66
2023/02/03 07:35:13;;;;;;;5.53;1.25;;;;;;;;;;4998587;28;20100;-66
2023/02/03 07:37:40;;;;;;;4.85;1.52;;;;;;;;;;4976625;28;20046;-66
2023/02/03 07:40:07;;;;;;;5.60;1.42;;;;;;;;;;4983669;28;20901;-66
2023/02/03 07:42:33;;;;;;;3.85;1.40;;;;;;;;;;4984731;28;20368;-66
2023/02/03 07:45:00;;;;;;;5.15;1.77;;;;;;;;;;4985340;28;20038;-66
2023/02/03 07:47:27;;;;;;;5.10;1.45;;;;;;;;;;4999026;28;20069;-66
2023/02/03 07:49:53;;;;;;;3.90;1.33;;;;;;;;;;4996923;28;20062;-66
2023/02/03 07:52:20;;;;;;;3.67;1.45;;;;;;;;;;4983642;28;20042;-67
2023/02/03 07:54:46;;;;;;;3.35;1.40;;;;;;;;;;4984059;28;20058;-66
2023/02/03 07:57:13;;;;;;;4.20;1.42;;;;;;;;;;4983688;28;20046;-66
2023/02/03 07:59:40;;;;;;;4.50;1.52;;;;;;;;;;4982061;28;20049;-66
2023/02/03 08:02:07;;;;;;;4.32;1.50;;;;;;;;;;4998590;28;20053;-66
2023/02/03 08:04:34;;;;;;;5.07;1.60;;;;;;;;;;4985103;28;20042;-66
2023/02/03 08:07:01;;;;;;;5.82;1.70;;;;;;;;;;4989781;28;20088;-66
2023/02/03 08:09:27;;;;;;;3.45;1.27;;;;;;;;;;4989995;28;20052;-66
2023/02/03 08:11:54;;;;;;;4.80;1.50;;;;;;;;;;4989038;28;20112;-66
2023/02/03 08:14:20;;;;;;;5.00;1.42;;;;;;;;;;4988858;28;20530;-66
2023/02/03 08:16:47;;;;;;;6.57;1.52;;;;;;;;;;4987856;28;20046;-66
2023/02/03 08:19:14;;;;;;;5.28;1.98;;;;;;;;;;4989628;28;20034;-65
2023/02/03 08:21:40;;;;;;;5.78;2.13;;;;;;;;;;4986173;28;20092;-66
2023/02/03 08:24:07;;;;;;;6.05;1.70;;;;;;;;;;4999617;28;20058;-66
2023/02/03 08:26:35;;;;;;;4.30;1.65;;;;;;;;;;5003289;28;20767;-66
2023/02/03 08:29:02;;;;;;;4.80;1.85;;;;;;;;;;5004716;28;20045;-66
2023/02/03 08:31:29;;;;;;;4.60;1.65;;;;;;;;;;5001469;28;20037;-66
2023/02/03 08:33:56;;;;;;;4.15;1.63;;;;;;;;;;5003887;28;20038;-66
2023/02/03 08:36:23;;;;;;;4.53;1.70;;;;;;;;;;5002974;28;20038;-66
2023/02/03 08:38:49;;;;;;;6.93;2.00;;;;;;;;;;5003377;28;20154;-66
2023/02/03 08:41:17;;;;;;;6.75;2.35;;;;;;;;;;5002267;28;20044;-66
2023/02/03 08:43:44;;;;;;;5.97;1.75;;;;;;;;;;5003823;28;20049;-65
2023/02/03 08:46:11;;;;;;;7.13;2.25;;;;;;;;;;5002923;28;20041;-66
2023/02/03 08:48:38;;;;;;;5.50;1.90;;;;;;;;;;5002696;28;22792;-66
2023/02/03 08:51:11;;;;;;;8.38;2.22;;;;;;;;;;5003013;28;20052;-66
2023/02/03 08:53:38;;;;;;;11.05;5.93;;;;;;;;;;5003884;28;20080;-66
2023/02/03 08:56:09;;;;;;;5.93;2.03;;;;;;;;;;5002720;28;20084;-66
2023/02/03 08:58:38;;;;;;;6.85;2.13;;;;;;;;;;5002725;28;20077;-66
2023/02/03 09:01:11;;;;;;;8.85;2.95;;;;;;;;;;5017696;28;20042;-66
2023/02/03 09:03:38;;;;;;;6.07;1.85;;;;;;;;;;5002364;28;20049;-66
2023/02/03 09:06:06;;;;;;;13.57;6.28;;;;;;;;;;5008735;28;20447;-66
2023/02/03 09:08:33;;;;;;;20.95;8.68;;;;;;;;;;5003910;28;20044;-66
2023/02/03 09:11:00;;;;;;;14.32;6.97;;;;;;;;;;5002355;28;20038;-66
2023/02/03 09:13:26;;;;;;;14.57;6.70;;;;;;;;;;5001602;28;20042;-66
2023/02/03 09:15:53;;;;;;;22.52;10.95;;;;;;;;;;5001539;28;20091;-66
2023/02/03 09:18:19;;;;;;;9.23;4.25;;;;;;;;;;5000545;28;20099;-66
2023/02/03 09:20:46;;;;;;;6.57;1.88;;;;;;;;;;4999882;28;20077;-66
2023/02/03 09:23:13;;;;;;;4.90;1.95;;;;;;;;;;5008317;28;20057;-66
2023/02/03 09:25:39;;;;;;;5.68;2.00;;;;;;;;;;5020791;28;20041;-66
2023/02/03 09:28:06;;;;;;;4.97;1.90;;;;;;;;;;5022403;28;20132;-66
2023/02/03 09:30:33;;;;;;;4.47;1.80;;;;;;;;;;5021060;28;20084;-66
2023/02/03 09:33:01;;;;;;;5.57;1.90;;;;;;;;;;5022559;28;20126;-68
2023/02/03 09:35:29;;;;;;;7.65;2.58;;;;;;;;;;5020258;28;20053;-67
2023/02/03 09:37:55;;;;;;;7.00;2.78;;;;;;;;;;5023279;28;20576;-66
2023/02/03 09:40:24;;;;;;;5.40;1.67;;;;;;;;;;5020943;28;20134;-66
2023/02/03 09:42:51;;;;;;;3.88;1.20;;;;;;;;;;5022523;28;20385;-66
2023/02/03 09:45:17;;;;;;;3.00;0.90;;;;;;;;;;5022382;28;20055;-66
2023/02/03 09:47:44;;;;;;;4.57;1.65;;;;;;;;;;5022062;28;20052;-66
2023/02/03 09:50:16;;;;;;;3.28;1.05;;;;;;;;;;5024086;28;20034;-66
2023/02/03 09:52:43;;;;;;;4.28;1.60;;;;;;;;;;5026332;28;20034;-66
2023/02/03 09:55:10;;;;;;;3.03;1.00;;;;;;;;;;5024294;28;20034;-66
2023/02/03 09:57:47;;;;;;;4.10;1.38;;;;;;;;;;5023797;28;20055;-66
2023/02/03 10:00:21;;;;;;;3.72;1.33;;;;;;;;;;5020740;28;20583;-66
2023/02/03 10:03:00;;;;;;;4.10;1.20;;;;;;;;;;5023038;28;20902;-66
2023/02/03 10:05:32;;;;;;;3.15;1.20;;;;;;;;;;5025063;28;20041;-66
2023/02/03 10:07:59;;;;;;;5.63;1.70;;;;;;;;;;5023696;28;20036;-66
2023/02/03 10:10:37;;;;;;;6.00;1.40;;;;;;;;;;5023239;28;20041;-65
2023/02/03 10:13:24;;;;;;;5.30;0.90;;;;;;;;;;5022593;28;20469;-66
2023/02/03 10:16:09;;;;;;;2.90;1.15;;;;;;;;;;4993502;28;20051;-67
2023/02/03 10:18:40;;;;;;;3.33;1.02;;;;;;;;;;5021598;28;20036;-66
2023/02/03 10:21:16;;;;;;;5.63;1.13;;;;;;;;;;5018392;28;20070;-67
2023/02/03 10:23:43;;;;;;;3.83;1.08;;;;;;;;;;5022556;28;20079;-66
2023/02/03 10:26:18;;;;;;;3.33;1.00;;;;;;;;;;5023371;28;20069;-66
2023/02/03 10:28:53;;;;;;;2.65;0.70;;;;;;;;;;5023057;28;20489;-66
2023/02/03 10:31:22;;;;;;;3.88;0.93;;;;;;;;;;5020868;28;20532;-66
2023/02/03 10:33:52;;;;;;;2.75;0.98;;;;;;;;;;5021506;28;20051;-67
2023/02/03 10:36:23;;;;;;;2.83;0.80;;;;;;;;;;5021980;28;20068;-66
2023/02/03 10:39:08;;;;;;;2.65;0.73;;;;;;;;;;5002698;28;20049;-66
2023/02/03 10:41:35;;;;;;;3.10;0.90;;;;;;;;;;5021271;28;20445;-66
2023/02/03 10:44:03;;;;;;;2.03;0.68;;;;;;;;;;5023864;28;20071;-66
2023/02/03 10:46:31;;;;;;;2.03;0.60;;;;;;;;;;5020584;28;20048;-66
2023/02/03 10:48:58;;;;;;;2.10;0.60;;;;;;;;;;5022740;28;20436;-66
2023/02/03 10:51:40;;;;;;;4.30;0.90;;;;;;;;;;5021634;28;20042;-66
2023/02/03 10:54:26;;;;;;;1.83;0.63;;;;;;;;;;5022315;28;20294;-66
2023/02/03 10:56:52;;;;;;;4.43;0.90;;;;;;;;;;5021668;28;20089;-66
2023/02/03 10:59:28;;;;;;;1.90;0.60;;;;;;;;;;5021047;28;20117;-67
2023/02/03 11:01:55;;;;;;;2.13;0.70;;;;;;;;;;5022497;28;20403;-66
2023/02/03 11:04:26;;;;;;;2.13;0.60;;;;;;;;;;5021491;28;20091;-67
2023/02/03 11:07:26;;;;;;;1.85;0.47;;;;;;;;;;4999892;28;20052;-67
2023/02/03 11:09:53;;;;;;;1.58;0.50;;;;;;;;;;4998214;28;20183;-66
2023/02/03 11:12:20;;;;;;;2.35;0.70;;;;;;;;;;4997483;28;20074;-67
2023/02/03 11:14:47;;;;;;;1.92;0.50;;;;;;;;;;4999607;28;20044;-66
2023/02/03 11:17:16;;;;;;;1.35;0.60;;;;;;;;;;4998873;28;20605;-66
2023/02/03 11:19:44;;;;;;;1.55;0.50;;;;;;;;;;4998029;28;20103;-67
2023/02/03 11:22:11;;;;;;;2.60;0.68;;;;;;;;;;5000344;28;20045;-67
2023/02/03 11:24:39;;;;;;;3.20;0.63;;;;;;;;;;5000035;28;20046;-66
2023/02/03 11:27:14;;;;;;;2.35;0.60;;;;;;;;;;4999974;28;20096;-68
2023/02/03 11:29:45;;;;;;;1.42;0.50;;;;;;;;;;4996006;28;20105;-67
2023/02/03 11:32:18;;;;;;;2.80;0.70;;;;;;;;;;4999582;28;20106;-68
2023/02/03 11:35:04;;;;;;;2.08;0.55;;;;;;;;;;4996472;28;20053;-68
2023/02/03 11:37:40;;;;;;;2.20;0.60;;;;;;;;;;4999001;28;20053;-69
2023/02/03 11:40:07;;;;;;;1.08;0.45;;;;;;;;;;4995804;28;20045;-66
2023/02/03 11:42:40;;;;;;;2.72;0.73;;;;;;;;;;5008215;28;20042;-67
2023/02/03 11:45:26;;;;;;;2.47;0.63;;;;;;;;;;4999392;28;20466;-69
2023/02/03 11:47:56;;;;;;;1.88;0.60;;;;;;;;;;5004911;28;20049;-67
2023/02/03 11:50:24;;;;;;;2.30;0.60;;;;;;;;;;5014013;28;20113;-67
2023/02/03 11:52:51;;;;;;;2.90;0.70;;;;;;;;;;5009551;28;20803;-66
2023/02/03 11:55:17;;;;;;;2.33;0.60;;;;;;;;;;5016432;28;20108;-66
2023/02/03 11:58:03;;;;;;;2.17;0.50;;;;;;;;;;5015542;28;20042;-66
2023/02/03 12:00:41;;;;;;;1.75;0.55;;;;;;;;;;5005925;28;20056;-66
2023/02/03 12:03:27;;;;;;;1.33;0.50;;;;;;;;;;5003715;28;20089;-66
2023/02/03 12:05:59;;;;;;;1.55;0.50;;;;;;;;;;5003034;28;20056;-66
2023/02/03 12:08:33;;;;;;;5.15;0.70;;;;;;;;;;5003697;28;20033;-66
2023/02/03 12:11:09;;;;;;;1.25;0.50;;;;;;;;;;5003701;28;20129;-66
2023/02/03 12:13:43;;;;;;;2.50;0.65;;;;;;;;;;5004708;28;20535;-66
2023/02/03 12:16:28;;;;;;;1.92;0.60;;;;;;;;;;5003055;28;20041;-66
2023/02/03 12:19:03;;;;;;;2.20;0.70;;;;;;;;;;5002849;28;20686;-66
2023/02/03 12:21:35;;;;;;;3.83;0.80;;;;;;;;;;5002628;28;20168;-66
2023/02/03 12:24:10;;;;;;;2.17;0.65;;;;;;;;;;5002236;28;20058;-66
2023/02/03 12:26:57;;;;;;;1.13;0.40;;;;;;;;;;5004905;28;20030;-66
2023/02/03 12:29:43;;;;;;;2.85;0.70;;;;;;;;;;5014521;28;20450;-66
2023/02/03 12:32:32;;;;;;;2.50;0.77;;;;;;;;;;5030959;28;20057;-67
2023/02/03 12:34:58;;;;;;;1.73;0.60;;;;;;;;;;5039375;28;20050;-67
2023/02/03 12:37:25;;;;;;;3.78;0.70;;;;;;;;;;5026786;28;20042;-67
2023/02/03 12:39:52;;;;;;;1.70;0.50;;;;;;;;;;5010681;28;20378;-67
2023/02/03 12:42:18;;;;;;;1.92;0.60;;;;;;;;;;5010338;28;20045;-68
2023/02/03 12:44:54;;;;;;;3.00;0.70;;;;;;;;;;5004967;28;20038;-67
2023/02/03 12:47:27;;;;;;;2.95;0.70;;;;;;;;;;5005825;28;20042;-67
2023/02/03 12:50:06;;;;;;;2.50;0.57;;;;;;;;;;5009380;28;20395;-66
2023/02/03 12:52:39;;;;;;;1.83;0.50;;;;;;;;;;5012675;28;20038;-67
2023/02/03 12:55:18;;;;;;;2.80;0.82;;;;;;;;;;5012728;28;20046;-66
2023/02/03 12:57:49;;;;;;;5.43;0.70;;;;;;;;;;5031614;28;20861;-67
2023/02/03 13:00:42;;;;;;;1.98;0.65;;;;;;;;;;4996050;28;20046;-68
2023/02/03 13:03:48;;;;;;;2.70;0.77;;;;;;;;;;4980285;28;20496;-67
2023/02/03 13:06:14;;;;;;;2.28;0.60;;;;;;;;;;4992920;28;20038;-67
2023/02/03 13:08:44;;;;;;;2.03;0.60;;;;;;;;;;4994589;28;20073;-67
2023/02/03 13:11:33;;;;;;;2.17;0.50;;;;;;;;;;4998303;28;20067;-67
2023/02/03 13:14:14;;;;;;;4.47;0.68;;;;;;;;;;4988021;28;21802;-67
2023/02/03 13:17:18;;;;;;;4.57;0.80;;;;;;;;;;4980631;28;20141;-67
2023/02/03 13:19:48;;;;;;;2.55;0.60;;;;;;;;;;4982310;28;20053;-64
2023/02/03 13:22:16;;;;;;;3.50;0.80;;;;;;;;;;4978490;28;20173;-65
2023/02/03 13:24:52;;;;;;;2.17;0.65;;;;;;;;;;4976922;28;20046;-67
2023/02/03 13:27:28;;;;;;;1.80;0.60;;;;;;;;;;4976673;28;20065;-67
2023/02/03 13:30:13;;;;;;;2.03;0.70;;;;;;;;;;4974648;28;20049;-66
2023/02/03 13:32:40;;;;;;;2.72;0.85;;;;;;;;;;4981519;28;20121;-67
2023/02/03 13:35:19;;;;;;;2.13;0.63;;;;;;;;;;4971640;28;20059;-66
2023/02/03 13:37:57;;;;;;;2.42;0.60;;;;;;;;;;4949529;28;20111;-68
2023/02/03 13:40:35;;;;;;;2.10;0.70;;;;;;;;;;4981198;28;20042;-66
2023/02/03 13:43:06;;;;;;;5.32;0.60;;;;;;;;;;4982126;28;20079;-67
2023/02/03 13:45:33;;;;;;;2.40;0.70;;;;;;;;;;4982469;28;20039;-67
2023/02/03 13:48:20;;;;;;;4.88;0.68;;;;;;;;;;4966684;28;20034;-66
2023/02/03 13:51:01;;;;;;;3.33;0.70;;;;;;;;;;4988315;28;20831;-67
2023/02/03 13:53:28;;;;;;;1.90;0.70;;;;;;;;;;4983323;28;20062;-67
2023/02/03 13:55:55;;;;;;;3.28;0.60;;;;;;;;;;5016695;28;20507;-69
2023/02/03 13:58:26;;;;;;;1.92;0.70;;;;;;;;;;4988826;28;20120;-67
2023/02/03 14:00:53;;;;;;;2.83;0.60;;;;;;;;;;5003130;28;20045;-66
2023/02/03 14:03:25;;;;;;;2.95;0.98;;;;;;;;;;5002990;28;20037;-67
2023/02/03 14:05:56;;;;;;;1.63;0.52;;;;;;;;;;5003706;28;20052;-67
2023/02/03 14:08:26;;;;;;;3.25;0.80;;;;;;;;;;4993009;28;20470;-67
2023/02/03 14:11:11;;;;;;;4.25;0.80;;;;;;;;;;4985110;28;20057;-67
2023/02/03 14:13:37;;;;;;;5.07;0.90;;;;;;;;;;4999324;28;20446;-66
2023/02/03 14:16:14;;;;;;;2.58;0.77;;;;;;;;;;4999349;28;20045;-66
2023/02/03 14:18:45;;;;;;;6.53;1.10;;;;;;;;;;4996789;28;20057;-66
2023/02/03 14:21:14;;;;;;;3.55;0.80;;;;;;;;;;5001334;28;20507;-65
2023/02/03 14:23:46;;;;;;;3.58;1.30;;;;;;;;;;4998596;28;20077;-67
2023/02/03 14:26:24;;;;;;;2.75;0.73;;;;;;;;;;4994633;28;20041;-69
2023/02/03 14:28:51;;;;;;;3.00;0.90;;;;;;;;;;5004954;28;20128;-68
2023/02/03 14:31:19;;;;;;;2.70;0.90;;;;;;;;;;5011870;28;20046;-68
2023/02/03 14:33:50;;;;;;;3.92;1.10;;;;;;;;;;5006519;28;20037;-66
2023/02/03 14:36:33;;;;;;;5.20;1.20;;;;;;;;;;5000104;28;20162;-67
2023/02/03 14:39:02;;;;;;;3.42;1.10;;;;;;;;;;5018520;28;20045;-67
2023/02/03 14:41:46;;;;;;;4.47;1.20;;;;;;;;;;5014725;28;20092;-68
2023/02/03 14:44:13;;;;;;;;;;;;;;;;;;5002956;28;20052;-69
2023/02/03 14:46:40;;;;;;;5.22;1.10;;;;;;;;;;5014306;28;20303;-68
2023/02/03 14:49:06;;;;;;;3.45;1.00;;;;;;;;;;5018826;28;20061;-67
2023/02/03 14:51:50;;;;;;;5.30;1.13;;;;;;;;;;5020425;28;20037;-68
2023/02/03 14:54:16;;;;;;;;;;;;;;;;;;5019788;28;20049;-67
2023/02/03 14:59:43;;;;;;;2.38;0.70;;;;;;;;;;5019418;28;20115;-67
2023/02/03 15:02:24;;;;;;;2.42;0.73;;;;;;;;;;5018236;28;20044;-67